createdAt,value
2023-08-13T00:00:52.115Z,18.32
2023-08-13T00:05:55.106Z,18.26
2023-08-13T00:10:59.451Z,18.25
2023-08-13T00:16:02.466Z,18.18
2023-08-13T00:21:05.542Z,18.16
2023-08-13T00:26:09.964Z,18.12
2023-08-13T00:31:13.008Z,18.09
2023-08-13T00:36:16.359Z,18.06
2023-08-13T00:41:20.922Z,17.99
2023-08-13T00:46:24.204Z,18.08
2023-08-13T00:51:27.591Z,17.98
2023-08-13T00:56:32.031Z,17.95
2023-08-13T01:01:35.207Z,17.91
2023-08-13T01:06:48.585Z,17.78
2023-08-13T01:12:02.106Z,17.78
2023-08-13T01:17:09.171Z,17.69
2023-08-13T01:22:12.586Z,17.65
2023-08-13T01:27:25.139Z,17.57
2023-08-13T01:32:33.706Z,17.52
2023-08-13T01:37:37.226Z,17.47
2023-08-13T01:42:41.600Z,17.44
2023-08-13T01:47:44.765Z,17.37
2023-08-13T01:52:48.034Z,17.35
2023-08-13T01:57:52.732Z,17.33
2023-08-13T02:02:56.545Z,17.29
2023-08-13T02:07:59.741Z,17.28
2023-08-13T02:13:04.437Z,17.17
2023-08-13T02:18:07.769Z,17.15
2023-08-13T02:23:11.770Z,17.12
2023-08-13T02:28:16.176Z,17.07
2023-08-13T02:33:19.240Z,17.04
2023-08-13T02:38:22.373Z,17.02
2023-08-13T02:43:30.422Z,17.01
2023-08-13T02:48:33.715Z,16.99
2023-08-13T02:53:36.950Z,16.91
2023-08-13T02:58:41.397Z,16.87
2023-08-13T03:03:52.198Z,16.80
2023-08-13T03:08:56.550Z,16.77
2023-08-13T03:14:01.112Z,16.68
2023-08-13T03:19:04.584Z,16.66
2023-08-13T03:24:08.716Z,16.65
2023-08-13T03:29:13.368Z,16.60
2023-08-13T03:34:16.744Z,16.59
2023-08-13T03:39:19.840Z,16.53
2023-08-13T03:44:24.362Z,16.53
2023-08-13T03:49:27.455Z,16.53
2023-08-13T03:54:31.073Z,16.49
2023-08-13T03:59:35.685Z,16.49
2023-08-13T04:04:40.189Z,16.49
2023-08-13T04:09:44.034Z,16.44
2023-08-13T04:14:48.534Z,16.46
2023-08-13T04:19:52.413Z,16.45
2023-08-13T04:24:55.564Z,16.41
2023-08-13T04:30:05.664Z,16.38
2023-08-13T04:35:09.449Z,16.38
2023-08-13T04:40:13.310Z,16.37
2023-08-13T04:45:18.757Z,16.41
2023-08-13T04:50:22.417Z,16.39
2023-08-13T04:55:25.617Z,16.43
2023-08-13T05:00:30.679Z,16.47
2023-08-13T05:05:33.981Z,16.51
2023-08-13T05:10:37.229Z,16.51
2023-08-13T05:15:44.672Z,16.54
2023-08-13T05:20:49.222Z,16.56
2023-08-13T05:25:52.365Z,16.64
2023-08-13T05:30:57.931Z,16.73
2023-08-13T05:36:01.068Z,16.69
2023-08-13T05:41:07.348Z,16.61
2023-08-13T05:46:12.004Z,16.62
2023-08-13T05:51:15.471Z,16.65
2023-08-13T05:56:19.193Z,16.70
2023-08-13T06:01:23.549Z,16.82
2023-08-13T06:06:26.680Z,16.98
2023-08-13T06:11:29.733Z,17.17
2023-08-13T06:16:34.160Z,17.40
2023-08-13T06:21:37.256Z,17.60
2023-08-13T06:26:40.380Z,17.77
2023-08-13T06:31:44.932Z,17.84
2023-08-13T06:36:48.014Z,18.04
2023-08-13T06:41:51.091Z,18.09
2023-08-13T06:46:56.908Z,18.04
2023-08-13T06:51:59.957Z,18.21
2023-08-13T06:57:03.231Z,18.48
2023-08-13T07:02:07.752Z,18.76
2023-08-13T07:07:10.778Z,18.88
2023-08-13T07:12:16.683Z,18.94
2023-08-13T07:17:21.409Z,18.98
2023-08-13T07:22:24.688Z,19.17
2023-08-13T07:27:27.973Z,19.43
2023-08-13T07:32:32.688Z,19.81
2023-08-13T07:37:35.770Z,20.16
2023-08-13T07:42:40.899Z,20.53
2023-08-13T07:47:46.863Z,20.79
2023-08-13T07:52:51.475Z,21.02
2023-08-13T07:57:54.751Z,21.18
2023-08-13T08:02:59.319Z,21.38
2023-08-13T08:08:02.976Z,21.69
2023-08-13T08:13:06.466Z,21.85
2023-08-13T08:18:11.005Z,22.08
2023-08-13T08:23:15.275Z,22.18
2023-08-13T08:28:18.469Z,22.14
2023-08-13T08:33:24.701Z,22.38
2023-08-13T08:38:30.100Z,22.46
2023-08-13T08:43:33.430Z,22.57
2023-08-13T08:48:38.542Z,22.62
2023-08-13T08:53:42.749Z,22.73
2023-08-13T08:58:45.816Z,22.56
2023-08-13T09:03:50.608Z,22.72
2023-08-13T09:08:54.420Z,22.88
2023-08-13T09:13:57.464Z,23.27
2023-08-13T09:19:13.254Z,23.45
2023-08-13T09:24:19.519Z,23.69
2023-08-13T09:29:25.219Z,23.75
2023-08-13T09:34:31.132Z,23.84
2023-08-13T09:39:35.387Z,23.75
2023-08-13T09:44:39.337Z,23.64
2023-08-13T09:49:44.920Z,23.97
2023-08-13T09:54:49.363Z,24.41
2023-08-13T09:59:53.870Z,24.98
2023-08-13T10:04:58.830Z,25.22
2023-08-13T10:10:08.255Z,25.57
2023-08-13T10:15:12.308Z,25.79
2023-08-13T10:20:19.349Z,26.06
2023-08-13T10:25:30.174Z,26.25
2023-08-13T10:30:33.841Z,26.55
2023-08-13T10:35:40.366Z,26.99
2023-08-13T10:41:03.574Z,27.35
2023-08-13T10:46:07.515Z,27.16
2023-08-13T10:51:12.213Z,27.57
2023-08-13T10:56:19.891Z,27.56
2023-08-13T11:01:22.969Z,27.40
2023-08-13T11:06:29.340Z,26.98
2023-08-13T11:11:32.445Z,27.00
2023-08-13T11:16:37.044Z,27.05
2023-08-13T11:21:41.716Z,26.80
2023-08-13T11:26:45.561Z,26.52
2023-08-13T11:31:49.753Z,26.35
2023-08-13T11:36:56.713Z,26.42
2023-08-13T11:42:09.469Z,26.68
2023-08-13T11:47:14.105Z,26.71
2023-08-13T11:52:22.176Z,26.49
2023-08-13T11:57:25.349Z,26.53
2023-08-13T12:02:28.482Z,26.71
2023-08-13T12:07:41.613Z,26.86
2023-08-13T12:12:46.113Z,26.85
2023-08-13T12:17:49.277Z,26.90
2023-08-13T12:22:53.928Z,26.99
2023-08-13T12:27:57.168Z,27.27
2023-08-13T12:33:00.368Z,27.31
2023-08-13T12:38:04.982Z,27.53
2023-08-13T12:43:08.019Z,27.34
2023-08-13T12:48:11.275Z,27.21
2023-08-13T12:53:15.725Z,27.36
2023-08-13T12:58:18.858Z,27.50
2023-08-13T13:03:21.946Z,27.71
2023-08-13T13:08:28.333Z,27.84
2023-08-13T13:13:33.311Z,27.71
2023-08-13T13:18:36.680Z,27.47
2023-08-13T13:23:41.140Z,27.42
2023-08-13T13:28:44.344Z,26.82
2023-08-13T13:33:47.554Z,26.17
2023-08-13T13:38:52.011Z,25.60
2023-08-13T13:43:55.012Z,24.94
2023-08-13T13:48:58.164Z,24.57
2023-08-13T13:54:02.637Z,24.81
2023-08-13T13:59:07.162Z,24.86
2023-08-13T14:04:10.448Z,24.35
2023-08-13T14:09:16.944Z,24.39
2023-08-13T14:14:20.711Z,24.43
2023-08-13T14:19:23.957Z,24.54
2023-08-13T14:24:28.506Z,24.30
2023-08-13T14:29:32.182Z,24.09
2023-08-13T14:34:35.386Z,24.28
2023-08-13T14:39:39.833Z,24.59
2023-08-13T14:44:43.149Z,24.57
2023-08-13T14:49:49.149Z,24.56
2023-08-13T14:54:53.781Z,24.66
2023-08-13T14:59:56.929Z,24.65
2023-08-13T15:05:00.024Z,24.61
2023-08-13T15:10:07.017Z,24.33
2023-08-13T15:15:12.078Z,24.52
2023-08-13T15:20:15.559Z,24.34
2023-08-13T15:25:20.543Z,24.50
2023-08-13T15:30:24.059Z,24.61
2023-08-13T15:35:27.190Z,24.50
2023-08-13T15:40:31.676Z,24.79
2023-08-13T15:45:34.763Z,24.96
2023-08-13T15:50:37.954Z,25.00
2023-08-13T15:55:42.896Z,25.11
2023-08-13T16:00:46.267Z,25.23
2023-08-13T16:05:51.754Z,24.93
2023-08-13T16:11:00.182Z,24.76
2023-08-13T16:16:03.273Z,24.70
2023-08-13T16:21:06.497Z,24.86
2023-08-13T16:26:11.148Z,25.08
2023-08-13T16:31:14.304Z,24.82
2023-08-13T16:36:18.043Z,24.89
2023-08-13T16:41:22.565Z,25.40
2023-08-13T16:46:25.899Z,27.10
2023-08-13T16:51:29.139Z,26.52
2023-08-13T16:56:36.759Z,25.79
2023-08-13T17:01:39.941Z,25.51
2023-08-13T17:06:43.193Z,25.51
2023-08-13T17:11:47.610Z,25.32
2023-08-13T17:16:50.622Z,25.13
2023-08-13T17:21:53.605Z,25.12
2023-08-13T17:27:02.771Z,25.27
2023-08-13T17:32:07.866Z,25.50
2023-08-13T17:37:11.428Z,25.63
2023-08-13T17:42:15.903Z,25.68
2023-08-13T17:47:19.466Z,25.62
2023-08-13T17:52:22.601Z,25.28
2023-08-13T17:57:27.316Z,25.13
2023-08-13T18:02:30.727Z,24.95
2023-08-13T18:07:33.963Z,24.92
2023-08-13T18:12:38.777Z,24.88
2023-08-13T18:17:42.206Z,24.87
2023-08-13T18:22:45.616Z,24.79
2023-08-13T18:27:50.163Z,24.63
2023-08-13T18:32:53.389Z,24.41
2023-08-13T18:37:57.962Z,24.18
2023-08-13T18:43:03.586Z,23.99
2023-08-13T18:48:07.208Z,23.78
2023-08-13T18:53:10.842Z,23.60
2023-08-13T18:58:18.924Z,23.36
2023-08-13T19:03:22.361Z,23.16
2023-08-13T19:08:25.720Z,22.87
2023-08-13T19:13:31.603Z,22.54
2023-08-13T19:18:34.801Z,22.11
2023-08-13T19:23:37.883Z,22.00
2023-08-13T19:28:42.481Z,21.87
2023-08-13T19:33:45.808Z,21.81
2023-08-13T19:38:51.592Z,21.70
2023-08-13T19:44:02.472Z,21.62
2023-08-13T19:49:06.832Z,21.47
2023-08-13T19:54:11.043Z,21.39
2023-08-13T19:59:17.977Z,21.25
2023-08-13T20:04:21.176Z,21.10
2023-08-13T20:09:26.509Z,20.99
2023-08-13T20:14:41.053Z,20.85
2023-08-13T20:19:46.490Z,20.76
2023-08-13T20:24:50.909Z,20.66
2023-08-13T20:29:58.305Z,20.54
2023-08-13T20:35:01.712Z,20.44
2023-08-13T20:40:10.847Z,20.31
2023-08-13T20:45:16.251Z,20.16
2023-08-13T20:50:19.966Z,20.08
2023-08-13T20:55:23.377Z,19.98
2023-08-13T21:00:27.982Z,19.86
2023-08-13T21:06:07.332Z,19.75
2023-08-13T21:11:12.444Z,19.58
2023-08-13T21:16:16.981Z,19.50
2023-08-13T21:21:21.752Z,19.42
2023-08-13T21:26:25.866Z,19.34
2023-08-13T21:31:30.645Z,19.28
2023-08-13T21:36:35.899Z,19.18
2023-08-13T21:41:39.120Z,19.10
2023-08-13T21:46:43.622Z,19.04
2023-08-13T21:51:47.312Z,19.04
2023-08-13T21:56:50.915Z,19.00
2023-08-13T22:01:55.449Z,18.89
2023-08-13T22:06:58.644Z,18.82
2023-08-13T22:12:02.073Z,18.76
2023-08-13T22:17:06.898Z,18.73
2023-08-13T22:22:10.140Z,18.62
2023-08-13T22:27:13.894Z,18.55
2023-08-13T22:32:18.708Z,18.50
2023-08-13T22:37:22.196Z,18.48
2023-08-13T22:42:25.310Z,18.39
2023-08-13T22:47:29.837Z,18.33
2023-08-13T22:52:33.013Z,18.28
2023-08-13T22:57:36.309Z,18.21
2023-08-13T23:02:40.870Z,18.22
2023-08-13T23:07:44.169Z,18.21
2023-08-13T23:12:47.347Z,18.14
2023-08-13T23:17:52.008Z,18.07
2023-08-13T23:22:56.037Z,18.00
2023-08-13T23:27:59.258Z,17.94
2023-08-13T23:33:03.910Z,17.93
2023-08-13T23:38:09.528Z,17.87
2023-08-13T23:43:12.752Z,17.82
2023-08-13T23:48:17.206Z,17.74
2023-08-13T23:53:20.257Z,17.70
2023-08-13T23:58:23.362Z,17.62
